Time;durP1;ratioP1;P1;durP2;ratioP2;P2;SDS_P1;SDS_P2;PMS_P1;PMS_P2;Temp;Humidity;BMP_temperature;BMP_pressure;BME280_temperature;BME280_humidity;BME280_pressure;Samples;Min_cycle;Max_cycle;Signal;HPM_P1;HPM_P2
2023/07/17 00:02:08;;;;;;;;;;;29.60;99.90;;;;;;5095318;28;19904;-81
2023/07/17 00:04:35;;;;;;;;;;;29.50;99.90;;;;;;5096450;28;20364;-82
2023/07/17 00:07:01;;;;;;;;;;;29.50;99.90;;;;;;5114696;28;20275;-82
2023/07/17 00:09:27;;;;;;;;;;;29.50;99.90;;;;;;5114877;28;19904;-80
2023/07/17 00:11:52;;;;;;;;;;;29.40;99.90;;;;;;5114527;28;19957;-81
2023/07/17 00:14:18;;;;;;;;;;;29.40;99.90;;;;;;5114755;28;19947;-81
2023/07/17 00:16:44;;;;;;;;;;;29.40;99.90;;;;;;5096091;28;19903;-81
2023/07/17 00:19:10;;;;;;;;;;;29.30;99.90;;;;;;5114604;28;19954;-81
2023/07/17 00:21:36;;;;;;;;;;;29.30;99.90;;;;;;5096073;28;19963;-84
2023/07/17 00:24:02;;;;;;;;;;;29.30;99.90;;;;;;5095930;28;19908;-81
2023/07/17 00:26:28;;;;;;;;;;;29.30;99.90;;;;;;5114896;28;19904;-81
2023/07/17 00:28:55;;;;;;;;;;;29.30;99.90;;;;;;5114308;28;19904;-81
2023/07/17 00:31:21;;;;;;;;;;;29.30;99.90;;;;;;5114246;28;19910;-81
2023/07/17 00:33:47;;;;;;;;;;;29.20;99.90;;;;;;5114146;28;20364;-82
2023/07/17 00:36:13;;;;;;;;;;;29.20;99.90;;;;;;5095879;28;19969;-81
2023/07/17 00:38:38;;;;;;;;;;;29.30;99.90;;;;;;5114361;28;19912;-81
2023/07/17 00:41:04;;;;;;;;;;;29.20;99.90;;;;;;5113980;28;19904;-81
2023/07/17 00:43:30;;;;;;;;;;;29.20;99.90;;;;;;5095783;28;19956;-82
2023/07/17 00:45:56;;;;;;;;;;;29.20;99.90;;;;;;5113897;28;19911;-81
2023/07/17 00:48:22;;;;;;;;;;;29.20;99.90;;;;;;5095758;28;20355;-81
2023/07/17 00:50:48;;;;;;;;;;;29.10;99.90;;;;;;5114559;28;19933;-80
2023/07/17 00:53:15;;;;;;;;;;;29.20;99.90;;;;;;5113904;28;19903;-80
2023/07/17 00:55:40;;;;;;;;;;;29.10;99.90;;;;;;5095617;28;19903;-81
2023/07/17 00:58:07;;;;;;;;;;;29.10;99.90;;;;;;5114075;28;20010;-81
2023/07/17 01:00:33;;;;;;;;;;;29.10;99.90;;;;;;5114458;28;19911;-81
2023/07/17 01:02:59;;;;;;;;;;;29.10;99.90;;;;;;5092214;28;19916;-81
2023/07/17 01:05:25;;;;;;;;;;;29.10;99.90;;;;;;5093619;28;19954;-81
2023/07/17 01:07:51;;;;;;;;;;;29.10;99.90;;;;;;5093838;28;19943;-80
2023/07/17 01:10:17;;;;;;;;;;;29.00;99.90;;;;;;5093317;28;19904;-82
2023/07/17 01:12:42;;;;;;;;;;;29.00;99.90;;;;;;5093743;28;19911;-81
2023/07/17 01:15:08;;;;;;;;;;;29.00;99.90;;;;;;5093377;28;19911;-81
2023/07/17 01:17:34;;;;;;;;;;;29.00;99.90;;;;;;5092191;28;20379;-81
2023/07/17 01:20:00;;;;;;;;;;;29.00;99.90;;;;;;5093404;28;19904;-81
2023/07/17 01:22:29;;;;;;;;;;;29.00;99.90;;;;;;5093266;28;19904;-81
2023/07/17 01:24:55;;;;;;;;;;;29.00;99.90;;;;;;5093519;28;19926;-81
2023/07/17 01:27:21;;;;;;;;;;;29.00;99.90;;;;;;5093609;28;20288;-81
2023/07/17 01:29:47;;;;;;;;;;;29.00;99.90;;;;;;5093206;28;20402;-80
2023/07/17 01:32:13;;;;;;;;;;;28.90;99.90;;;;;;5093315;28;19958;-81
2023/07/17 01:34:38;;;;;;;;;;;28.90;99.90;;;;;;5093662;28;20003;-81
2023/07/17 01:37:05;;;;;;;;;;;28.90;99.90;;;;;;5093007;28;19904;-81
2023/07/17 01:39:31;;;;;;;;;;;28.90;99.90;;;;;;5093241;28;19962;-81
2023/07/17 01:41:57;;;;;;;;;;;28.90;99.90;;;;;;5093065;28;19904;-81
2023/07/17 01:44:27;;;;;;;;;;;28.80;99.90;;;;;;5093116;28;19911;-81
2023/07/17 01:46:54;;;;;;;;;;;28.80;99.90;;;;;;5093188;28;19911;-81
2023/07/17 01:49:20;;;;;;;;;;;28.80;99.90;;;;;;5091565;28;19993;-81
2023/07/17 01:51:46;;;;;;;;;;;28.80;99.90;;;;;;5092927;28;19904;-81
2023/07/17 01:54:11;;;;;;;;;;;28.80;99.90;;;;;;5091427;28;20025;-82
2023/07/17 01:56:37;;;;;;;;;;;28.80;99.90;;;;;;5093444;28;19904;-80
2023/07/17 01:59:03;;;;;;;;;;;28.70;99.90;;;;;;5096899;28;19919;-81
2023/07/17 02:01:29;;;;;;;;;;;28.70;99.90;;;;;;5097308;28;19904;-81
2023/07/17 02:03:55;;;;;;;;;;;28.70;99.90;;;;;;5112481;28;19963;-80
2023/07/17 02:06:20;;;;;;;;;;;28.70;99.90;;;;;;5098786;28;20351;-81
2023/07/17 02:08:46;;;;;;;;;;;28.60;99.90;;;;;;5117210;28;19956;-80
2023/07/17 02:11:12;;;;;;;;;;;28.60;99.90;;;;;;5116784;28;20356;-81
2023/07/17 02:13:38;;;;;;;;;;;28.60;99.90;;;;;;5117396;28;19931;-82
2023/07/17 02:16:05;;;;;;;;;;;28.60;99.90;;;;;;5116775;28;20375;-81
2023/07/17 02:18:31;;;;;;;;;;;28.60;99.90;;;;;;5116729;28;19934;-81
2023/07/17 02:20:56;;;;;;;;;;;28.60;99.90;;;;;;5116618;28;20352;-81
2023/07/17 02:23:22;;;;;;;;;;;28.60;99.90;;;;;;5117184;28;19911;-81
2023/07/17 02:25:48;;;;;;;;;;;28.60;99.90;;;;;;5098229;28;19903;-81
2023/07/17 02:28:15;;;;;;;;;;;28.60;99.90;;;;;;5116905;28;19904;-80
2023/07/17 02:30:41;;;;;;;;;;;28.50;99.90;;;;;;5116607;28;19910;-82
2023/07/17 02:33:06;;;;;;;;;;;28.50;99.90;;;;;;5116805;28;19943;-81
2023/07/17 02:35:32;;;;;;;;;;;28.50;99.90;;;;;;5116483;28;20363;-81
2023/07/17 02:37:58;;;;;;;;;;;28.40;99.90;;;;;;5116413;28;20422;-81
2023/07/17 02:40:24;;;;;;;;;;;28.40;99.90;;;;;;5116635;28;20368;-82
2023/07/17 02:42:50;;;;;;;;;;;28.40;99.90;;;;;;5116858;28;20394;-81
2023/07/17 02:45:15;;;;;;;;;;;28.40;99.90;;;;;;5098044;28;19904;-81
2023/07/17 02:47:41;;;;;;;;;;;28.30;99.90;;;;;;5116754;28;19904;-81
2023/07/17 02:50:07;;;;;;;;;;;28.30;99.90;;;;;;5116337;28;20263;-81
2023/07/17 02:52:36;;;;;;;;;;;28.30;99.90;;;;;;5116200;28;19996;-81
2023/07/17 02:55:04;;;;;;;;;;;28.30;99.90;;;;;;5097782;28;20267;-83
2023/07/17 02:57:34;;;;;;;;;;;28.30;99.90;;;;;;5116004;28;19923;-80
2023/07/17 03:00:00;;;;;;;;;;;28.30;99.90;;;;;;5116006;28;19908;-81
2023/07/17 03:02:26;;;;;;;;;;;28.20;99.90;;;;;;5116082;28;19947;-81
2023/07/17 03:04:52;;;;;;;;;;;28.20;99.90;;;;;;5116134;28;19945;-81
2023/07/17 03:07:18;;;;;;;;;;;28.20;99.90;;;;;;5116146;28;19904;-80
2023/07/17 03:09:43;;;;;;;;;;;28.20;99.90;;;;;;5115383;28;19904;-81
2023/07/17 03:12:09;;;;;;;;;;;28.20;99.90;;;;;;5115709;28;19915;-81
2023/07/17 03:14:35;;;;;;;;;;;28.10;99.90;;;;;;5115749;28;20270;-81
2023/07/17 03:17:01;;;;;;;;;;;28.00;99.90;;;;;;5116197;28;19904;-82
2023/07/17 03:19:27;;;;;;;;;;;28.00;99.90;;;;;;5115625;28;19911;-81
2023/07/17 03:21:52;;;;;;;;;;;28.00;99.90;;;;;;5115622;28;19911;-81
2023/07/17 03:24:18;;;;;;;;;;;28.10;99.90;;;;;;5097216;28;20415;-81
2023/07/17 03:26:45;;;;;;;;;;;28.20;99.90;;;;;;5115953;28;19910;-81
2023/07/17 03:29:11;;;;;;;;;;;28.30;99.90;;;;;;5115651;28;20252;-82
2023/07/17 03:31:36;;;;;;;;;;;28.50;99.90;;;;;;5115890;28;19965;-82
2023/07/17 03:34:02;;;;;;;;;;;28.60;99.90;;;;;;5115409;28;19963;-81
2023/07/17 03:36:28;;;;;;;;;;;28.70;99.90;;;;;;5115651;28;19915;-81
2023/07/17 03:38:54;;;;;;;;;;;28.70;99.90;;;;;;5115114;28;19964;-80
2023/07/17 03:41:21;;;;;;;;;;;28.80;99.50;;;;;;5115112;28;19951;-81
2023/07/17 03:43:47;;;;;;;;;;;28.80;98.90;;;;;;5115718;28;20306;-81
2023/07/17 03:46:13;;;;;;;;;;;28.90;98.90;;;;;;5115167;28;20317;-82
2023/07/17 03:48:39;;;;;;;;;;;28.90;98.80;;;;;;5115448;28;19935;-81
2023/07/17 03:51:05;;;;;;;;;;;28.90;98.60;;;;;;5115653;28;19912;-81
2023/07/17 03:53:31;;;;;;;;;;;29.00;98.10;;;;;;5115867;28;19904;-81
2023/07/17 03:55:56;;;;;;;;;;;29.10;97.90;;;;;;5115086;28;19904;-81
2023/07/17 03:58:22;;;;;;;;;;;29.10;97.70;;;;;;5115082;28;19911;-82
2023/07/17 04:00:48;;;;;;;;;;;29.10;97.40;;;;;;5115053;28;19907;-82
2023/07/17 04:03:14;;;;;;;;;;;29.10;97.30;;;;;;5115421;28;19915;-81
2023/07/17 04:05:40;;;;;;;;;;;29.10;96.70;;;;;;5115194;28;19940;-81
2023/07/17 04:08:06;;;;;;;;;;;29.10;96.20;;;;;;5115098;28;20002;-81
2023/07/17 04:10:32;;;;;;;;;;;29.10;95.60;;;;;;5114629;28;19904;-81
2023/07/17 04:12:58;;;;;;;;;;;29.20;95.20;;;;;;5114725;28;19904;-81
2023/07/17 04:15:23;;;;;;;;;;;29.20;95.10;;;;;;5096351;28;19904;-81
2023/07/17 04:17:49;;;;;;;;;;;29.20;94.70;;;;;;5114426;28;19927;-81
2023/07/17 04:20:16;;;;;;;;;;;29.20;95.00;;;;;;5113860;28;19904;-81
2023/07/17 04:22:42;;;;;;;;;;;29.20;94.80;;;;;;5114026;28;19907;-83
2023/07/17 04:25:08;;;;;;;;;;;29.20;93.80;;;;;;5114480;28;19929;-81
2023/07/17 04:27:33;;;;;;;;;;;29.30;93.70;;;;;;5114835;28;19910;-81
2023/07/17 04:29:59;;;;;;;;;;;29.40;93.40;;;;;;5114275;28;19904;-82
2023/07/17 04:32:26;;;;;;;;;;;29.40;93.70;;;;;;5114253;28;19926;-81
2023/07/17 04:34:51;;;;;;;;;;;29.40;93.70;;;;;;5114233;28;20352;-81
2023/07/17 04:37:18;;;;;;;;;;;29.50;93.50;;;;;;5114316;28;20010;-82
2023/07/17 04:39:44;;;;;;;;;;;29.60;93.30;;;;;;5114184;28;19908;-82
2023/07/17 04:42:10;;;;;;;;;;;29.70;93.10;;;;;;5114132;28;19997;-81
2023/07/17 04:44:36;;;;;;;;;;;29.60;92.60;;;;;;5114031;28;19903;-81
2023/07/17 04:47:02;;;;;;;;;;;29.70;92.60;;;;;;5114077;28;19955;-82
2023/07/17 04:49:28;;;;;;;;;;;29.80;92.10;;;;;;5113852;28;19904;-82
2023/07/17 04:51:54;;;;;;;;;;;29.90;92.00;;;;;;5113804;28;19904;-81
2023/07/17 04:54:19;;;;;;;;;;;30.10;91.80;;;;;;5113682;28;19908;-82
2023/07/17 04:56:45;;;;;;;;;;;30.10;91.60;;;;;;5113970;28;20336;-81
2023/07/17 04:59:11;;;;;;;;;;;30.20;91.40;;;;;;5113545;28;19941;-81
2023/07/17 05:01:37;;;;;;;;;;;30.30;91.20;;;;;;5114313;28;19904;-81
2023/07/17 05:04:03;;;;;;;;;;;30.50;90.80;;;;;;5113468;28;19915;-81
2023/07/17 05:06:29;;;;;;;;;;;30.50;90.70;;;;;;5113755;28;20002;-82
2023/07/17 05:08:55;;;;;;;;;;;30.70;90.00;;;;;;5114221;28;19938;-82
2023/07/17 05:11:21;;;;;;;;;;;30.80;89.60;;;;;;5113342;28;19904;-82
2023/07/17 05:13:47;;;;;;;;;;;31.30;88.90;;;;;;5114057;28;19903;-82
2023/07/17 05:16:12;;;;;;;;;;;32.00;87.50;;;;;;5095266;28;19956;-82
2023/07/17 05:18:38;;;;;;;;;;;32.70;85.40;;;;;;5113365;28;19912;-82
2023/07/17 05:21:04;;;;;;;;;;;33.40;84.60;;;;;;5113682;28;19904;-82
2023/07/17 05:23:30;;;;;;;;;;;34.00;83.00;;;;;;5113491;28;20240;-82
2023/07/17 05:25:57;;;;;;;;;;;34.80;80.70;;;;;;5094884;28;20387;-81
2023/07/17 05:28:23;;;;;;;;;;;35.40;78.50;;;;;;5113746;28;20267;-81
2023/07/17 05:30:52;;;;;;;;;;;36.40;78.80;;;;;;5113147;28;20352;-82
2023/07/17 05:33:18;;;;;;;;;;;37.60;85.20;;;;;;5116815;28;20359;-82
2023/07/17 05:35:44;;;;;;;;;;;38.20;86.60;;;;;;5117461;28;19988;-82
2023/07/17 05:38:10;;;;;;;;;;;39.00;86.70;;;;;;5117311;28;19959;-81
2023/07/17 05:40:37;;;;;;;;;;;39.50;86.80;;;;;;5099042;28;19910;-81
2023/07/17 05:43:04;;;;;;;;;;;40.10;84.90;;;;;;5099023;28;19964;-82
2023/07/17 05:45:30;;;;;;;;;;;40.40;80.10;;;;;;5117383;28;19957;-82
2023/07/17 05:47:55;;;;;;;;;;;41.00;78.80;;;;;;5117443;28;19911;-82
2023/07/17 05:50:21;;;;;;;;;;;41.10;76.70;;;;;;5099201;28;19904;-83
2023/07/17 05:52:47;;;;;;;;;;;42.20;74.30;;;;;;5098800;28;20364;-83
2023/07/17 05:55:13;;;;;;;;;;;42.30;76.30;;;;;;5098756;28;19904;-83
2023/07/17 05:57:39;;;;;;;;;;;42.60;75.00;;;;;;5117464;28;19912;-83
2023/07/17 06:00:05;;;;;;;;;;;43.00;74.70;;;;;;5098712;28;19903;-82
2023/07/17 06:02:31;;;;;;;;;;;42.80;74.70;;;;;;5116679;28;20275;-82
2023/07/17 06:04:57;;;;;;;;;;;43.10;73.60;;;;;;5116858;28;19910;-82
2023/07/17 06:07:23;;;;;;;;;;;43.40;75.70;;;;;;5116811;28;19903;-83
2023/07/17 06:09:49;;;;;;;;;;;43.30;78.30;;;;;;5098269;28;19996;-82
2023/07/17 06:12:15;;;;;;;;;;;43.00;78.70;;;;;;5116907;28;19950;-82
2023/07/17 06:14:41;;;;;;;;;;;43.00;81.50;;;;;;5116907;28;19904;-82
2023/07/17 06:17:07;;;;;;;;;;;42.80;84.70;;;;;;5117018;28;19903;-83
2023/07/17 06:19:32;;;;;;;;;;;43.10;83.10;;;;;;5081732;28;19908;-82
2023/07/17 06:21:58;;;;;;;;;;;43.70;77.80;;;;;;5116623;28;19974;-82
2023/07/17 06:24:24;;;;;;;;;;;44.00;79.30;;;;;;5117116;28;19980;-83
2023/07/17 06:26:50;;;;;;;;;;;43.80;75.80;;;;;;5116590;28;19907;-82
2023/07/17 06:29:16;;;;;;;;;;;43.60;71.40;;;;;;5116861;28;19903;-83
2023/07/17 06:31:41;;;;;;;;;;;44.60;75.40;;;;;;5116921;28;19904;-83
2023/07/17 06:34:07;;;;;;;;;;;44.80;80.10;;;;;;5116171;28;19907;-83
2023/07/17 06:36:33;;;;;;;;;;;44.70;82.10;;;;;;5116573;28;19904;-83
2023/07/17 06:38:59;;;;;;;;;;;44.60;81.40;;;;;;5116384;28;19912;-83
2023/07/17 06:41:25;;;;;;;;;;;44.80;79.90;;;;;;5116200;28;19904;-84
2023/07/17 06:43:50;;;;;;;;;;;45.00;82.00;;;;;;5115373;28;19908;-82
2023/07/17 06:46:16;;;;;;;;;;;44.50;81.30;;;;;;5098317;28;19910;-83
2023/07/17 06:48:42;;;;;;;;;;;44.30;81.50;;;;;;5116041;28;20378;-84
2023/07/17 06:51:08;;;;;;;;;;;44.50;81.40;;;;;;5116323;28;19953;-83
2023/07/17 06:53:34;;;;;;;;;;;44.10;81.30;;;;;;5116504;28;19911;-83
2023/07/17 06:56:00;;;;;;;;;;;45.00;78.70;;;;;;5115692;28;20084;-83
2023/07/17 06:58:27;;;;;;;;;;;45.20;76.90;;;;;;5115763;28;20363;-83
2023/07/17 07:00:56;;;;;;;;;;;45.00;75.00;;;;;;5116216;28;19903;-84
2023/07/17 07:03:23;;;;;;;;;;;45.00;74.40;;;;;;5115489;28;20444;-84
2023/07/17 07:06:01;;;;;;;;;;;44.70;76.00;;;;;;5115625;28;19904;-83
2023/07/17 07:08:28;;;;;;;;;;;44.80;75.00;;;;;;5115841;28;19915;-83
2023/07/17 07:10:54;;;;;;;;;;;45.20;73.20;;;;;;5097088;28;20022;-83
2023/07/17 07:13:20;;;;;;;;;;;44.80;73.90;;;;;;5115932;28;19904;-83
2023/07/17 07:15:47;;;;;;;;;;;44.30;74.30;;;;;;5115743;28;19904;-83
2023/07/17 07:18:13;;;;;;;;;;;43.60;75.60;;;;;;5115716;28;19919;-83
2023/07/17 07:20:38;;;;;;;;;;;43.60;74.90;;;;;;5115128;28;19904;-83
2023/07/17 07:23:04;;;;;;;;;;;43.50;75.60;;;;;;5115651;28;19910;-82
2023/07/17 07:25:30;;;;;;;;;;;42.60;76.50;;;;;;5115456;28;19907;-83
2023/07/17 07:27:56;;;;;;;;;;;43.30;75.80;;;;;;5115442;28;19984;-83
2023/07/17 07:30:22;;;;;;;;;;;43.20;75.10;;;;;;5114885;28;20003;-83
2023/07/17 07:32:48;;;;;;;;;;;42.50;76.00;;;;;;5115058;28;20367;-83
2023/07/17 07:35:14;;;;;;;;;;;42.10;77.10;;;;;;5115020;28;19904;-83
2023/07/17 07:37:40;;;;;;;;;;;41.80;77.80;;;;;;5114938;28;20376;-83
2023/07/17 07:40:06;;;;;;;;;;;41.30;78.80;;;;;;5114791;28;19907;-82
2023/07/17 07:42:32;;;;;;;;;;;40.70;79.30;;;;;;5096296;28;19984;-83
2023/07/17 07:44:58;;;;;;;;;;;40.40;81.00;;;;;;5114817;28;19946;-83
2023/07/17 07:47:24;;;;;;;;;;;40.00;81.90;;;;;;5115227;28;19904;-83
2023/07/17 07:49:50;;;;;;;;;;;40.00;82.70;;;;;;5114954;28;20018;-83
2023/07/17 07:52:16;;;;;;;;;;;40.10;83.80;;;;;;5114927;28;19904;-82
2023/07/17 07:54:43;;;;;;;;;;;40.40;83.30;;;;;;5114200;28;20294;-83
2023/07/17 07:57:09;;;;;;;;;;;40.70;82.90;;;;;;5115012;28;19903;-82
2023/07/17 07:59:35;;;;;;;;;;;39.70;83.60;;;;;;5114447;28;19915;-83
2023/07/17 08:02:01;;;;;;;;;;;39.90;84.30;;;;;;5095927;28;20279;-82
2023/07/17 08:04:28;;;;;;;;;;;39.70;85.10;;;;;;5129972;27;20057;-82
2023/07/17 08:06:54;;;;;;;;;;;39.80;85.20;;;;;;5114680;28;19903;-82
2023/07/17 08:09:20;;;;;;;;;;;40.30;85.30;;;;;;5114362;28;19903;-82
2023/07/17 08:11:46;;;;;;;;;;;39.90;84.90;;;;;;5114253;28;20029;-82
2023/07/17 08:14:12;;;;;;;;;;;39.60;85.40;;;;;;5114805;28;19943;-82
2023/07/17 08:16:39;;;;;;;;;;;39.70;85.50;;;;;;5095923;28;19919;-82
2023/07/17 08:19:05;;;;;;;;;;;39.00;85.00;;;;;;5114375;28;20336;-82
2023/07/17 08:21:30;;;;;;;;;;;39.20;84.60;;;;;;5113960;28;19915;-82
2023/07/17 08:23:56;;;;;;;;;;;38.90;83.30;;;;;;5114379;28;19953;-81
2023/07/17 08:26:22;;;;;;;;;;;38.90;83.40;;;;;;5113830;28;19904;-83
2023/07/17 08:28:48;;;;;;;;;;;39.10;83.30;;;;;;5114259;28;19910;-81
2023/07/17 08:31:14;;;;;;;;;;;39.40;82.10;;;;;;5114028;28;19903;-82
2023/07/17 08:33:40;;;;;;;;;;;39.10;81.50;;;;;;5095575;28;19993;-83
2023/07/17 08:36:06;;;;;;;;;;;39.60;81.50;;;;;;5113800;28;19991;-83
2023/07/17 08:38:32;;;;;;;;;;;39.70;80.60;;;;;;5113710;28;19911;-82
2023/07/17 08:40:59;;;;;;;;;;;39.60;80.60;;;;;;5113859;28;20272;-82
2023/07/17 08:43:25;;;;;;;;;;;39.60;80.70;;;;;;5114349;28;20356;-83
2023/07/17 08:45:51;;;;;;;;;;;39.40;80.90;;;;;;5113941;28;20374;-82
2023/07/17 08:48:18;;;;;;;;;;;39.20;80.90;;;;;;5095517;28;19903;-82
2023/07/17 08:50:44;;;;;;;;;;;38.90;81.90;;;;;;5114079;28;19911;-82
2023/07/17 08:53:11;;;;;;;;;;;38.80;81.20;;;;;;5114248;28;19904;-81
2023/07/17 08:55:38;;;;;;;;;;;38.90;81.20;;;;;;5113275;28;20193;-82
2023/07/17 08:58:04;;;;;;;;;;;38.60;82.00;;;;;;5113192;28;19908;-82
2023/07/17 09:00:30;;;;;;;;;;;38.90;81.80;;;;;;5113520;28;19935;-81
2023/07/17 09:02:56;;;;;;;;;;;38.90;82.30;;;;;;5113400;28;19916;-82
2023/07/17 09:05:22;;;;;;;;;;;38.80;82.70;;;;;;5113445;28;19953;-82
2023/07/17 09:07:48;;;;;;;;;;;38.40;83.30;;;;;;5113378;28;19904;-82
2023/07/17 09:10:15;;;;;;;;;;;38.50;83.50;;;;;;5113011;28;19904;-82
2023/07/17 09:12:49;;;;;;;;;;;38.30;83.60;;;;;;5094738;28;20002;-82
2023/07/17 09:15:17;;;;;;;;;;;38.50;83.70;;;;;;5094991;28;19903;-83
2023/07/17 09:17:43;;;;;;;;;;;38.60;84.40;;;;;;5113243;28;19912;-83
2023/07/17 09:20:10;;;;;;;;;;;38.20;85.10;;;;;;5113386;28;19903;-82
2023/07/17 09:22:40;;;;;;;;;;;38.20;85.70;;;;;;5113397;28;19965;-81
2023/07/17 09:25:06;;;;;;;;;;;38.20;84.50;;;;;;5113492;28;19904;-81
2023/07/17 09:27:42;;;;;;;;;;;38.20;84.30;;;;;;5113171;28;19910;-81
2023/07/17 09:30:08;;;;;;;;;;;38.50;84.30;;;;;;5113290;28;19956;-82
2023/07/17 09:32:34;;;;;;;;;;;38.70;84.00;;;;;;5113241;28;20279;-84
2023/07/17 09:35:07;;;;;;;;;;;38.50;82.70;;;;;;5113561;28;19911;-82
2023/07/17 09:37:34;;;;;;;;;;;38.20;83.20;;;;;;5112974;28;20048;-82
2023/07/17 09:40:00;;;;;;;;;;;37.90;84.20;;;;;;5094624;28;19907;-83
2023/07/17 09:42:26;;;;;;;;;;;37.90;83.90;;;;;;5113349;28;19910;-83
2023/07/17 09:44:52;;;;;;;;;;;38.10;85.40;;;;;;5113297;28;19904;-83
2023/07/17 09:47:19;;;;;;;;;;;38.00;85.80;;;;;;5113177;28;19908;-83
2023/07/17 09:49:47;;;;;;;;;;;37.90;86.40;;;;;;5112892;28;20313;-82
2023/07/17 09:52:14;;;;;;;;;;;37.70;86.00;;;;;;5112855;28;19957;-83
2023/07/17 09:54:42;;;;;;;;;;;37.80;84.80;;;;;;5113027;28;19904;-83
2023/07/17 09:57:08;;;;;;;;;;;37.80;83.40;;;;;;5112772;28;19958;-83
2023/07/17 09:59:35;;;;;;;;;;;38.00;83.00;;;;;;5113306;28;19915;-82
2023/07/17 10:02:02;;;;;;;;;;;37.70;83.40;;;;;;5112881;28;19907;-81
2023/07/17 10:04:38;;;;;;;;;;;37.80;82.20;;;;;;5112432;28;19977;-82
2023/07/17 10:07:06;;;;;;;;;;;37.70;82.90;;;;;;5113110;28;20006;-82
2023/07/17 10:09:35;;;;;;;;;;;37.70;82.60;;;;;;5112888;28;19904;-83
2023/07/17 10:12:01;;;;;;;;;;;37.70;82.20;;;;;;5094200;28;19904;-82
2023/07/17 10:14:27;;;;;;;;;;;37.80;82.40;;;;;;5112934;28;19903;-83
2023/07/17 10:16:53;;;;;;;;;;;37.70;81.70;;;;;;5112815;28;19976;-81
2023/07/17 10:19:19;;;;;;;;;;;37.70;82.30;;;;;;5115644;28;20303;-81
2023/07/17 10:21:53;;;;;;;;;;;37.90;82.40;;;;;;5116624;28;20307;-82
2023/07/17 10:24:21;;;;;;;;;;;37.60;82.80;;;;;;5116992;28;20347;-83
2023/07/17 10:26:48;;;;;;;;;;;37.80;82.60;;;;;;5116441;28;19911;-83
2023/07/17 10:29:14;;;;;;;;;;;37.70;81.40;;;;;;5116452;28;19927;-83
2023/07/17 10:31:48;;;;;;;;;;;37.70;80.30;;;;;;5116344;28;20363;-81
2023/07/17 10:34:14;;;;;;;;;;;37.60;77.80;;;;;;5116263;28;19949;-82
2023/07/17 10:36:44;;;;;;;;;;;37.70;77.70;;;;;;5097565;28;19903;-81
2023/07/17 10:39:17;;;;;;;;;;;37.70;76.20;;;;;;5097571;28;19954;-82
2023/07/17 10:41:43;;;;;;;;;;;37.70;73.30;;;;;;5115993;28;19904;-81
2023/07/17 10:44:15;;;;;;;;;;;38.00;76.10;;;;;;5116663;28;20317;-82
2023/07/17 10:46:41;;;;;;;;;;;37.30;76.20;;;;;;5116351;28;20053;-82
2023/07/17 10:49:11;;;;;;;;;;;37.30;77.50;;;;;;5116118;28;19942;-83
2023/07/17 10:51:41;;;;;;;;;;;37.40;77.00;;;;;;5097379;28;19965;-82
2023/07/17 10:54:07;;;;;;;;;;;37.20;77.50;;;;;;5116049;28;20304;-82
2023/07/17 10:56:32;;;;;;;;;;;37.20;71.20;;;;;;5115502;28;20359;-82
2023/07/17 10:58:59;;;;;;;;;;;37.40;74.70;;;;;;5097348;28;19980;-84
2023/07/17 11:01:24;;;;;;;;;;;37.30;74.80;;;;;;5116206;28;19903;-82
2023/07/17 11:03:53;;;;;;;;;;;37.10;73.60;;;;;;5115530;28;19915;-82
2023/07/17 11:06:19;;;;;;;;;;;37.20;73.10;;;;;;5115567;28;19903;-82
2023/07/17 11:08:48;;;;;;;;;;;37.20;72.10;;;;;;5116026;28;20379;-81
2023/07/17 11:11:15;;;;;;;;;;;37.20;70.10;;;;;;5115264;28;19961;-82
2023/07/17 11:13:43;;;;;;;;;;;37.30;72.60;;;;;;5115843;28;20374;-81
2023/07/17 11:16:10;;;;;;;;;;;37.40;73.30;;;;;;5115845;28;19903;-82
2023/07/17 11:18:51;;;;;;;;;;;37.00;75.00;;;;;;5115333;28;20271;-83
2023/07/17 11:21:19;;;;;;;;;;;37.50;76.80;;;;;;5115158;28;20045;-82
2023/07/17 11:23:49;;;;;;;;;;;37.40;74.40;;;;;;5115883;28;20274;-83
2023/07/17 11:26:19;;;;;;;;;;;37.30;71.80;;;;;;5115193;28;19945;-82
2023/07/17 11:28:47;;;;;;;;;;;37.60;75.00;;;;;;5115144;28;19904;-82
2023/07/17 11:31:17;;;;;;;;;;;37.70;76.00;;;;;;5114627;28;19986;-82
2023/07/17 11:33:48;;;;;;;;;;;37.40;75.20;;;;;;5096703;28;19935;-82
2023/07/17 11:36:16;;;;;;;;;;;37.10;77.60;;;;;;5115397;28;20339;-81
2023/07/17 11:38:42;;;;;;;;;;;37.20;76.10;;;;;;5115893;28;20464;-83
2023/07/17 11:41:08;;;;;;;;;;;36.90;78.10;;;;;;5115041;28;19907;-81
2023/07/17 11:43:37;;;;;;;;;;;36.80;79.10;;;;;;5096758;28;19910;-82
2023/07/17 11:46:07;;;;;;;;;;;36.90;79.20;;;;;;5114913;28;20378;-82
2023/07/17 11:48:53;;;;;;;;;;;36.90;78.70;;;;;;5114709;28;19904;-81
2023/07/17 11:51:22;;;;;;;;;;;37.00;81.40;;;;;;5115264;28;19903;-82
2023/07/17 11:53:52;;;;;;;;;;;36.90;80.80;;;;;;5114720;28;19903;-82
2023/07/17 11:56:20;;;;;;;;;;;37.00;81.40;;;;;;5114637;28;19927;-81
2023/07/17 11:58:52;;;;;;;;;;;37.20;79.70;;;;;;5114386;28;19926;-81
2023/07/17 12:01:18;;;;;;;;;;;37.30;80.60;;;;;;5114593;28;19956;-81
2023/07/17 12:03:44;;;;;;;;;;;37.20;79.50;;;;;;5114228;28;19920;-81
2023/07/17 12:06:10;;;;;;;;;;;37.30;82.00;;;;;;5114293;28;19904;-82
2023/07/17 12:08:37;;;;;;;;;;;37.30;81.50;;;;;;5096323;28;19904;-81
2023/07/17 12:11:03;;;;;;;;;;;37.50;83.70;;;;;;5114303;28;20387;-82
2023/07/17 12:13:29;;;;;;;;;;;37.60;84.70;;;;;;5114320;28;20271;-81
2023/07/17 12:15:55;;;;;;;;;;;37.30;85.40;;;;;;5114403;28;19910;-82
2023/07/17 12:18:21;;;;;;;;;;;37.00;85.70;;;;;;5114251;28;19912;-82
2023/07/17 12:20:46;;;;;;;;;;;37.10;89.40;;;;;;5114726;28;19990;-82
2023/07/17 12:23:13;;;;;;;;;;;37.00;90.30;;;;;;5114557;28;19904;-81
2023/07/17 12:25:42;;;;;;;;;;;36.80;91.50;;;;;;5114114;28;20316;-82
2023/07/17 12:28:08;;;;;;;;;;;36.90;92.20;;;;;;5114541;28;19939;-82
2023/07/17 12:30:34;;;;;;;;;;;36.90;91.90;;;;;;5114073;28;19904;-81
2023/07/17 12:33:00;;;;;;;;;;;36.60;92.00;;;;;;5114263;28;20002;-82
2023/07/17 12:35:25;;;;;;;;;;;36.70;92.80;;;;;;5114082;28;19951;-83
2023/07/17 12:37:51;;;;;;;;;;;36.50;92.30;;;;;;5095617;28;20125;-82
2023/07/17 12:40:17;;;;;;;;;;;36.80;92.00;;;;;;5095476;28;19957;-82
2023/07/17 12:42:43;;;;;;;;;;;36.90;91.60;;;;;;5113080;28;19908;-83
2023/07/17 12:45:09;;;;;;;;;;;36.90;92.40;;;;;;5116132;28;20364;-81
2023/07/17 12:47:35;;;;;;;;;;;36.90;92.40;;;;;;5117733;28;19904;-84
2023/07/17 12:50:01;;;;;;;;;;;36.90;94.20;;;;;;5114541;28;19911;-83
2023/07/17 12:52:27;;;;;;;;;;;36.70;94.20;;;;;;5114061;28;19904;-82
2023/07/17 12:54:53;;;;;;;;;;;36.40;96.10;;;;;;5114657;28;20370;-83
2023/07/17 12:57:19;;;;;;;;;;;36.20;96.90;;;;;;5113788;28;20014;-83
2023/07/17 12:59:45;;;;;;;;;;;36.30;96.80;;;;;;5114577;28;20324;-82
2023/07/17 13:02:11;;;;;;;;;;;36.10;96.00;;;;;;5113875;28;19915;-81
2023/07/17 13:04:37;;;;;;;;;;;36.30;92.40;;;;;;5114506;28;19954;-82
2023/07/17 13:07:03;;;;;;;;;;;36.50;95.20;;;;;;5114017;28;19990;-83
2023/07/17 13:09:28;;;;;;;;;;;36.30;96.00;;;;;;5113805;28;20368;-83
2023/07/17 13:11:54;;;;;;;;;;;36.20;95.50;;;;;;5113539;28;19903;-82
2023/07/17 13:14:20;;;;;;;;;;;36.50;96.10;;;;;;5113749;28;19955;-81
2023/07/17 13:16:47;;;;;;;;;;;36.40;96.50;;;;;;5113676;28;19911;-83
2023/07/17 13:19:13;;;;;;;;;;;36.40;95.50;;;;;;5095577;28;19989;-82
2023/07/17 13:21:38;;;;;;;;;;;36.60;96.20;;;;;;5113880;28;19911;-82
2023/07/17 13:24:04;;;;;;;;;;;36.60;95.80;;;;;;5095341;28;20279;-83
2023/07/17 13:26:32;;;;;;;;;;;36.70;95.00;;;;;;5113629;28;19994;-83
2023/07/17 13:28:58;;;;;;;;;;;36.30;93.70;;;;;;5113465;28;19911;-83
2023/07/17 13:31:24;;;;;;;;;;;35.90;95.40;;;;;;5113552;28;19922;-82
2023/07/17 13:33:50;;;;;;;;;;;35.80;96.60;;;;;;5113561;28;20370;-82
2023/07/17 13:36:16;;;;;;;;;;;35.70;96.50;;;;;;5113423;28;19990;-82
2023/07/17 13:38:41;;;;;;;;;;;35.80;97.20;;;;;;5113682;28;20402;-82
2023/07/17 13:41:39;;;;;;;;;;;35.70;96.30;;;;;;5113283;28;20323;-83
2023/07/17 13:44:05;;;;;;;;;;;35.80;95.80;;;;;;5113876;28;19903;-82
2023/07/17 13:46:31;;;;;;;;;;;35.80;97.50;;;;;;5113299;28;19949;-82
2023/07/17 13:48:56;;;;;;;;;;;35.90;97.70;;;;;;5094950;28;19907;-83
2023/07/17 13:51:22;;;;;;;;;;;36.10;97.50;;;;;;5112979;28;19911;-82
2023/07/17 13:53:48;;;;;;;;;;;36.40;97.10;;;;;;5115734;28;19903;-82
2023/07/17 13:56:14;;;;;;;;;;;36.40;96.80;;;;;;5117136;28;20309;-83
2023/07/17 13:58:40;;;;;;;;;;;36.60;96.50;;;;;;5117273;28;19918;-83
2023/07/17 14:01:06;;;;;;;;;;;36.60;96.50;;;;;;5117228;28;19960;-83
2023/07/17 14:03:31;;;;;;;;;;;36.40;97.40;;;;;;5117005;28;19920;-82
2023/07/17 14:05:57;;;;;;;;;;;36.70;98.30;;;;;;5116996;28;19907;-83
2023/07/17 14:08:23;;;;;;;;;;;36.60;98.30;;;;;;5117077;28;19911;-83
2023/07/17 14:10:49;;;;;;;;;;;36.50;98.20;;;;;;5117159;28;19939;-83
2023/07/17 14:13:15;;;;;;;;;;;36.60;99.20;;;;;;5117289;28;20351;-83